createdAt,value
2023-05-10T00:01:25.284Z,6.45
2023-05-10T00:03:52.177Z,7.00
2023-05-10T00:06:19.129Z,6.35
2023-05-10T00:08:46.631Z,6.60
2023-05-10T00:11:14.862Z,5.80
2023-05-10T00:13:41.745Z,6.63
2023-05-10T00:16:08.637Z,6.57
2023-05-10T00:18:35.767Z,6.95
2023-05-10T00:21:02.535Z,7.10
2023-05-10T00:23:29.280Z,5.93
2023-05-10T00:25:56.025Z,6.63
2023-05-10T00:28:22.898Z,6.93
2023-05-10T00:30:49.599Z,7.25
2023-05-10T00:33:16.366Z,6.20
2023-05-10T00:35:43.111Z,6.57
2023-05-10T00:38:09.841Z,6.35
2023-05-10T00:40:40.986Z,5.53
2023-05-10T00:43:08.158Z,4.75
2023-05-10T00:45:37.421Z,5.07
2023-05-10T00:48:05.053Z,5.45
2023-05-10T00:50:33.823Z,4.80
2023-05-10T00:53:01.884Z,4.93
2023-05-10T00:55:28.832Z,4.32
2023-05-10T00:57:56.001Z,4.13
2023-05-10T01:00:22.865Z,4.53
2023-05-10T01:02:50.635Z,4.25
2023-05-10T01:05:17.737Z,4.40
2023-05-10T01:07:44.594Z,4.80
2023-05-10T01:10:11.864Z,4.55
2023-05-10T01:12:41.903Z,4.85
2023-05-10T01:15:10.581Z,5.10
2023-05-10T01:17:41.509Z,6.72
2023-05-10T01:20:10.459Z,5.75
2023-05-10T01:23:10.881Z,5.97
2023-05-10T01:26:15.960Z,6.50
2023-05-10T01:29:30.279Z,6.32
2023-05-10T01:32:27.930Z,6.00
2023-05-10T01:35:06.128Z,6.05
2023-05-10T01:37:58.946Z,6.65
2023-05-10T01:40:39.161Z,6.65
2023-05-10T01:43:15.111Z,6.75
2023-05-10T01:45:55.364Z,6.45
2023-05-10T01:48:24.014Z,5.07
2023-05-10T01:50:52.194Z,5.53
2023-05-10T01:53:21.425Z,5.43
2023-05-10T01:55:53.302Z,6.07
2023-05-10T02:00:51.877Z,6.80
2023-05-10T02:03:22.117Z,6.70
2023-05-10T02:05:50.704Z,6.85
2023-05-10T02:08:18.948Z,6.95
2023-05-10T02:10:47.570Z,7.60
2023-05-10T02:13:16.309Z,7.55
2023-05-10T02:15:44.280Z,7.47
2023-05-10T02:18:12.571Z,8.32
2023-05-10T02:20:40.619Z,7.63
2023-05-10T02:23:09.568Z,6.85
2023-05-10T02:25:37.074Z,8.30
2023-05-10T02:28:06.776Z,7.90
2023-05-10T02:30:37.972Z,7.82
2023-05-10T02:33:06.429Z,9.15
2023-05-10T02:35:34.470Z,8.18
2023-05-10T02:38:02.383Z,9.45
2023-05-10T02:40:29.899Z,8.50
2023-05-10T02:42:58.376Z,9.18
2023-05-10T02:45:37.839Z,9.70
2023-05-10T02:48:05.020Z,9.60
2023-05-10T02:50:33.923Z,9.55
2023-05-10T02:53:12.962Z,10.43
2023-05-10T02:55:44.264Z,10.18
2023-05-10T02:58:11.090Z,9.95
2023-05-10T03:00:37.952Z,10.35
2023-05-10T03:03:04.837Z,10.43
2023-05-10T03:05:31.781Z,11.35
2023-05-10T03:07:58.636Z,10.93
2023-05-10T03:10:30.464Z,11.65
2023-05-10T03:13:23.133Z,11.63
2023-05-10T03:16:08.631Z,10.82
2023-05-10T03:18:51.800Z,11.70
2023-05-10T03:21:21.785Z,10.80
2023-05-10T03:24:00.239Z,11.35
2023-05-10T03:26:29.541Z,11.98
2023-05-10T03:28:59.822Z,11.38
2023-05-10T03:31:27.088Z,11.98
2023-05-10T03:33:54.328Z,11.35
2023-05-10T03:36:21.076Z,11.48
2023-05-10T03:38:47.988Z,12.48
2023-05-10T03:41:15.002Z,11.48
2023-05-10T03:43:42.392Z,11.95
2023-05-10T03:46:09.129Z,10.55
2023-05-10T03:48:35.980Z,11.20
2023-05-10T03:51:02.982Z,11.80
2023-05-10T03:53:29.878Z,10.70
2023-05-10T03:55:56.574Z,10.27
2023-05-10T03:58:23.557Z,11.40
2023-05-10T04:22:48.650Z,9.23
2023-05-10T04:25:15.424Z,10.05
2023-05-10T04:27:42.502Z,9.32
2023-05-10T04:30:09.773Z,9.55
2023-05-10T04:32:37.094Z,8.93
2023-05-10T04:35:05.553Z,9.68
2023-05-10T04:37:32.277Z,9.10
2023-05-10T04:40:00.821Z,8.98
2023-05-10T04:42:27.597Z,8.75
2023-05-10T04:44:54.308Z,8.70
2023-05-10T04:47:21.106Z,8.77
2023-05-10T04:49:49.873Z,8.73
2023-05-10T04:52:18.273Z,9.10
2023-05-10T04:54:44.993Z,9.63
2023-05-10T04:57:11.763Z,10.25
2023-05-10T04:59:38.605Z,10.02
2023-05-10T05:02:06.156Z,9.85
2023-05-10T05:04:33.022Z,9.88
2023-05-10T05:06:59.801Z,9.27
2023-05-10T05:09:26.526Z,9.95
2023-05-10T05:11:53.281Z,10.18
2023-05-10T05:14:22.008Z,10.00
2023-05-10T05:16:48.773Z,10.50
2023-05-10T05:19:15.503Z,10.70
2023-05-10T05:21:42.238Z,9.15
2023-05-10T05:24:09.207Z,10.35
2023-05-10T05:26:35.999Z,9.85
2023-05-10T05:29:02.757Z,9.52
2023-05-10T05:31:30.043Z,11.00
2023-05-10T05:33:56.801Z,10.02
2023-05-10T05:36:23.559Z,10.90
2023-05-10T05:38:50.353Z,10.88
2023-05-10T05:41:17.110Z,10.35
2023-05-10T05:43:43.848Z,12.25
2023-05-10T05:46:10.681Z,11.15
2023-05-10T05:48:37.412Z,11.57
2023-05-10T05:51:05.867Z,10.43
2023-05-10T05:53:33.968Z,11.05
2023-05-10T05:56:00.757Z,10.55
2023-05-10T05:58:27.828Z,11.27
2023-05-10T06:00:54.933Z,10.50
2023-05-10T06:03:21.976Z,10.52
2023-05-10T06:05:49.076Z,10.52
2023-05-10T06:08:15.846Z,11.15
2023-05-10T06:10:42.622Z,10.40
2023-05-10T06:13:09.468Z,9.65
2023-05-10T06:15:36.547Z,10.77
2023-05-10T06:18:03.399Z,10.80
2023-05-10T06:20:32.332Z,11.40
2023-05-10T06:22:59.518Z,11.98
2023-05-10T06:25:26.289Z,12.38
2023-05-10T06:27:57.933Z,11.38
2023-05-10T06:30:30.455Z,13.13
2023-05-10T06:32:57.527Z,12.82
2023-05-10T06:35:24.512Z,13.30
2023-05-10T06:37:52.085Z,13.35
2023-05-10T06:40:19.252Z,12.98
2023-05-10T06:42:47.209Z,13.52
2023-05-10T06:45:15.867Z,13.88
2023-05-10T06:47:43.067Z,12.93
2023-05-10T06:50:12.179Z,13.25
2023-05-10T06:52:38.936Z,14.18
2023-05-10T06:55:06.432Z,14.80
2023-05-10T06:57:33.449Z,15.32
2023-05-10T07:00:00.696Z,14.95
2023-05-10T07:02:27.767Z,16.00
2023-05-10T07:04:54.949Z,16.77
2023-05-10T07:07:21.678Z,16.92
2023-05-10T07:09:48.601Z,15.85
2023-05-10T07:12:16.051Z,16.92
2023-05-10T07:14:43.515Z,16.98
2023-05-10T07:17:10.863Z,16.95
2023-05-10T07:19:37.667Z,18.15
2023-05-10T07:22:04.678Z,15.88
2023-05-10T07:24:32.129Z,16.05
2023-05-10T07:26:58.931Z,15.88
2023-05-10T07:29:26.080Z,16.08
2023-05-10T07:31:52.888Z,16.20
2023-05-10T07:34:19.753Z,15.43
2023-05-10T07:36:46.542Z,14.85
2023-05-10T07:39:18.686Z,15.35
2023-05-10T07:41:53.118Z,14.82
2023-05-10T07:44:21.175Z,14.85
2023-05-10T07:46:48.979Z,14.65
2023-05-10T07:49:15.767Z,14.65
2023-05-10T07:51:43.355Z,13.48
2023-05-10T07:54:10.105Z,12.73
2023-05-10T07:56:37.012Z,12.25
2023-05-10T07:59:05.853Z,11.65
2023-05-10T08:01:34.876Z,11.32
2023-05-10T08:04:02.876Z,11.55
2023-05-10T08:06:30.759Z,11.13
2023-05-10T08:08:57.880Z,10.85
2023-05-10T08:11:24.754Z,10.65
2023-05-10T08:13:52.086Z,9.63
2023-05-10T08:16:19.526Z,10.90
2023-05-10T08:18:47.769Z,10.35
2023-05-10T08:21:15.430Z,9.63
2023-05-10T08:23:42.422Z,9.57
2023-05-10T08:26:09.199Z,10.05
2023-05-10T08:28:35.957Z,11.15
2023-05-10T08:31:02.703Z,11.52
2023-05-10T08:33:29.522Z,11.40
2023-05-10T08:35:56.223Z,11.32
2023-05-10T08:38:23.077Z,10.63
2023-05-10T08:40:51.797Z,10.73
2023-05-10T08:43:19.172Z,11.27
2023-05-10T08:45:47.798Z,10.63
2023-05-10T08:48:15.726Z,11.18
2023-05-10T08:50:43.957Z,11.27
2023-05-10T08:53:13.494Z,11.10
2023-05-10T08:55:42.987Z,12.00
2023-05-10T08:58:10.774Z,13.70
2023-05-10T09:00:38.692Z,13.57
2023-05-10T09:03:07.124Z,14.35
2023-05-10T09:05:34.192Z,15.68
2023-05-10T09:08:03.529Z,14.85
2023-05-10T09:10:31.267Z,13.07
2023-05-10T09:12:59.355Z,16.00
2023-05-10T09:15:26.757Z,15.38
2023-05-10T09:17:53.886Z,14.20
2023-05-10T09:20:21.367Z,14.57
2023-05-10T09:22:48.271Z,15.05
2023-05-10T09:25:17.720Z,14.82
2023-05-10T09:27:48.637Z,14.55
2023-05-10T09:30:29.506Z,14.68
2023-05-10T09:32:57.954Z,14.93
2023-05-10T09:35:30.083Z,13.52
2023-05-10T09:38:03.761Z,15.30
2023-05-10T09:40:32.032Z,14.68
2023-05-10T09:43:08.371Z,14.43
2023-05-10T09:45:38.645Z,14.55
2023-05-10T09:48:06.949Z,15.27
2023-05-10T09:50:34.975Z,14.95
2023-05-10T09:53:04.324Z,13.18
2023-05-10T09:55:37.046Z,13.60
2023-05-10T09:58:03.813Z,12.88
2023-05-10T10:00:37.827Z,13.73
2023-05-10T10:03:05.298Z,15.18
2023-05-10T10:05:34.777Z,15.45
2023-05-10T10:08:05.919Z,15.45
2023-05-10T10:10:34.532Z,14.63
2023-05-10T10:13:02.595Z,15.23
2023-05-10T10:15:29.565Z,15.13
2023-05-10T10:17:56.355Z,15.32
2023-05-10T10:20:24.874Z,16.23
2023-05-10T10:22:52.197Z,15.13
2023-05-10T10:25:22.767Z,14.13
2023-05-10T10:27:52.140Z,15.40
2023-05-10T10:30:43.000Z,14.38
2023-05-10T10:33:31.586Z,14.75
2023-05-10T10:36:03.571Z,14.02
2023-05-10T10:39:00.248Z,14.32
2023-05-10T10:41:45.236Z,15.00
2023-05-10T10:44:27.042Z,15.02
2023-05-10T10:47:19.661Z,16.83
2023-05-10T10:50:05.059Z,17.83
2023-05-10T10:52:43.281Z,17.65
2023-05-10T10:55:15.829Z,15.90
2023-05-10T10:57:46.546Z,16.70
2023-05-10T11:00:36.861Z,14.85
2023-05-10T11:03:19.460Z,17.45
2023-05-10T11:05:47.749Z,16.00
2023-05-10T11:08:30.835Z,15.93
2023-05-10T11:11:00.657Z,14.52
2023-05-10T11:13:41.988Z,15.93
2023-05-10T11:16:21.102Z,16.55
2023-05-10T11:19:03.449Z,16.13
2023-05-10T11:21:34.663Z,13.55
2023-05-10T11:24:06.667Z,16.63
2023-05-10T11:26:36.192Z,16.17
2023-05-10T11:29:04.076Z,14.35
2023-05-10T11:31:30.968Z,15.23
2023-05-10T11:33:59.964Z,14.23
2023-05-10T11:36:29.875Z,15.88
2023-05-10T11:38:57.823Z,15.52
2023-05-10T11:41:26.114Z,14.23
2023-05-10T11:43:55.083Z,15.05
2023-05-10T11:46:25.673Z,13.75
2023-05-10T11:48:56.469Z,13.43
2023-05-10T11:51:24.933Z,13.27
2023-05-10T11:53:54.916Z,12.35
2023-05-10T11:56:21.826Z,10.85
2023-05-10T11:58:58.468Z,12.55
2023-05-10T12:01:27.395Z,11.43
2023-05-10T12:03:59.483Z,10.70
2023-05-10T12:06:33.503Z,9.43
2023-05-10T12:09:00.487Z,9.93
2023-05-10T12:11:28.832Z,9.60
2023-05-10T12:13:57.257Z,9.25
2023-05-10T12:16:27.047Z,7.70
2023-05-10T12:18:58.658Z,7.55
2023-05-10T12:21:26.090Z,7.70
2023-05-10T12:23:55.568Z,7.45
2023-05-10T12:26:27.410Z,8.50
2023-05-10T12:28:55.506Z,7.90
2023-05-10T12:31:22.387Z,7.18
2023-05-10T12:33:50.205Z,7.40
2023-05-10T12:36:18.185Z,7.40
2023-05-10T12:38:49.803Z,6.80
2023-05-10T12:41:19.159Z,6.95
2023-05-10T12:43:46.455Z,6.35
2023-05-10T12:46:16.069Z,6.03
2023-05-10T12:48:44.720Z,5.80
2023-05-10T12:51:13.940Z,6.25
2023-05-10T12:53:44.217Z,5.07
2023-05-10T12:58:39.572Z,4.70
2023-05-10T13:01:06.822Z,5.60
2023-05-10T13:03:33.685Z,5.25
2023-05-10T13:06:00.651Z,5.07
2023-05-10T13:08:27.480Z,4.78
2023-05-10T13:10:54.205Z,5.03
2023-05-10T13:13:20.999Z,4.63
2023-05-10T13:15:47.703Z,4.50
2023-05-10T13:18:14.551Z,4.10
2023-05-10T13:20:41.567Z,4.43
2023-05-10T13:23:08.437Z,4.50
2023-05-10T13:25:35.386Z,4.10
2023-05-10T13:28:02.558Z,5.00
2023-05-10T13:30:29.915Z,4.80
2023-05-10T13:32:56.725Z,4.90
2023-05-10T13:35:23.646Z,5.25
2023-05-10T13:37:50.402Z,7.18
2023-05-10T13:40:17.982Z,5.65
2023-05-10T13:42:44.903Z,5.55
2023-05-10T13:45:13.233Z,5.13
2023-05-10T13:47:40.263Z,6.70
2023-05-10T13:50:07.860Z,5.95
2023-05-10T13:52:34.670Z,6.82
2023-05-10T13:55:01.534Z,6.10
2023-05-10T13:57:29.742Z,6.45
2023-05-10T13:59:57.766Z,5.55
2023-05-10T14:02:25.483Z,5.93
2023-05-10T14:04:52.354Z,6.05
2023-05-10T14:07:19.364Z,5.35
2023-05-10T14:09:46.108Z,5.80
2023-05-10T14:12:12.978Z,5.65
2023-05-10T14:14:39.925Z,5.78
2023-05-10T14:17:06.679Z,5.55
2023-05-10T14:19:34.833Z,5.53
2023-05-10T14:22:01.571Z,5.00
2023-05-10T14:24:28.587Z,5.88
2023-05-10T14:26:55.345Z,5.30
2023-05-10T14:29:22.900Z,5.30
2023-05-10T14:31:49.639Z,6.22
2023-05-10T14:34:16.482Z,5.10
2023-05-10T14:36:43.266Z,5.60
2023-05-10T14:39:11.050Z,4.90
2023-05-10T14:41:38.008Z,5.10
2023-05-10T14:44:04.716Z,4.80
2023-05-10T14:46:31.944Z,5.70
2023-05-10T14:48:58.734Z,5.75
2023-05-10T14:51:25.921Z,6.43
2023-05-10T14:53:52.632Z,5.20
2023-05-10T14:56:19.499Z,5.63
2023-05-10T14:58:46.226Z,5.40
2023-05-10T15:01:13.006Z,5.82
2023-05-10T15:03:40.289Z,5.57
2023-05-10T15:06:09.064Z,5.60
2023-05-10T15:08:36.814Z,5.85
2023-05-10T15:11:04.006Z,6.03
2023-05-10T15:13:30.772Z,5.85
2023-05-10T15:15:57.581Z,6.13
2023-05-10T15:18:27.433Z,5.50
2023-05-10T15:20:54.255Z,5.88
2023-05-10T15:23:21.015Z,5.40
2023-05-10T15:25:47.752Z,5.50
2023-05-10T15:28:14.555Z,5.43
2023-05-10T15:30:41.323Z,4.97
2023-05-10T15:33:09.546Z,4.75
2023-05-10T15:35:39.102Z,4.50
2023-05-10T15:38:06.852Z,5.25
2023-05-10T15:40:33.628Z,5.05
2023-05-10T15:43:00.382Z,4.32
2023-05-10T15:45:27.476Z,4.40
2023-05-10T15:47:54.285Z,4.18
2023-05-10T15:50:21.501Z,4.03
2023-05-10T15:52:48.268Z,4.72
2023-05-10T15:55:15.290Z,4.07
2023-05-10T15:57:43.768Z,3.80
2023-05-10T16:00:12.625Z,3.90
2023-05-10T16:02:41.094Z,5.07
2023-05-10T16:05:09.554Z,6.32
2023-05-10T16:07:36.266Z,5.90
2023-05-10T16:10:04.135Z,5.95
2023-05-10T16:12:31.333Z,6.00
2023-05-10T16:14:58.060Z,6.35
2023-05-10T16:17:24.943Z,5.72
2023-05-10T16:19:51.992Z,5.60
2023-05-10T16:22:18.814Z,5.13
2023-05-10T16:24:45.597Z,6.20
2023-05-10T16:27:13.207Z,6.78
2023-05-10T16:29:40.082Z,5.40
2023-05-10T16:32:06.998Z,5.50
2023-05-10T16:34:33.703Z,5.47
2023-05-10T16:37:00.566Z,6.30
2023-05-10T16:39:27.322Z,6.60
2023-05-10T16:41:54.006Z,6.32
2023-05-10T16:44:21.913Z,6.53
2023-05-10T16:46:49.804Z,6.20
2023-05-10T16:49:16.678Z,6.25
2023-05-10T16:51:43.450Z,6.60
2023-05-10T16:54:10.138Z,6.53
2023-05-10T16:56:36.846Z,6.28
2023-05-10T16:59:03.718Z,6.35
2023-05-10T17:01:30.550Z,7.05
2023-05-10T17:03:57.463Z,6.35
2023-05-10T17:06:24.261Z,6.30
2023-05-10T17:08:51.604Z,5.32
2023-05-10T17:11:19.881Z,6.35
2023-05-10T17:13:47.216Z,5.32
2023-05-10T17:16:14.099Z,5.60
2023-05-10T17:18:42.234Z,5.18
2023-05-10T17:21:09.429Z,5.22
2023-05-10T17:23:36.244Z,5.10
2023-05-10T17:26:05.393Z,4.88
2023-05-10T17:28:32.497Z,4.35
2023-05-10T17:30:59.951Z,5.10
2023-05-10T17:33:26.803Z,4.75
2023-05-10T17:35:53.571Z,4.80
2023-05-10T17:38:20.271Z,5.57
2023-05-10T17:40:47.006Z,5.82
2023-05-10T17:43:13.725Z,5.43
2023-05-10T17:45:40.450Z,5.10
2023-05-10T17:48:07.767Z,5.32
2023-05-10T17:50:35.269Z,5.40
2023-05-10T17:53:02.888Z,5.40
2023-05-10T17:55:30.727Z,5.28
2023-05-10T17:57:59.483Z,4.95
2023-05-10T18:00:26.368Z,5.22
2023-05-10T18:02:53.182Z,5.45
2023-05-10T18:05:21.496Z,5.55
2023-05-10T18:07:48.670Z,5.20
2023-05-10T18:10:15.697Z,5.35
2023-05-10T18:12:42.794Z,5.38
2023-05-10T18:15:10.168Z,5.13
2023-05-10T18:17:36.961Z,5.05
2023-05-10T18:20:04.123Z,5.10
2023-05-10T18:22:30.976Z,4.65
2023-05-10T18:24:57.787Z,4.75
2023-05-10T18:27:25.743Z,4.90
2023-05-10T18:29:52.585Z,4.78
2023-05-10T18:32:20.399Z,4.70
2023-05-10T18:34:47.253Z,4.25
2023-05-10T18:37:14.084Z,5.13
2023-05-10T18:39:40.913Z,4.75
2023-05-10T18:42:08.856Z,4.55
2023-05-10T18:44:35.706Z,4.18
2023-05-10T18:47:02.485Z,4.13
2023-05-10T18:49:29.278Z,3.97
2023-05-10T18:51:57.053Z,3.95
2023-05-10T18:54:24.864Z,4.32
2023-05-10T18:56:51.650Z,4.20
2023-05-10T18:59:18.403Z,4.43
2023-05-10T19:01:45.199Z,4.60
2023-05-10T19:04:12.099Z,4.40
2023-05-10T19:06:38.924Z,4.28
2023-05-10T19:09:05.813Z,4.40
2023-05-10T19:11:34.312Z,4.30
2023-05-10T19:14:01.818Z,3.90
2023-05-10T19:16:29.684Z,3.90
2023-05-10T19:18:56.771Z,4.05
2023-05-10T19:21:23.515Z,3.70
2023-05-10T19:23:50.529Z,4.25
2023-05-10T19:26:17.346Z,3.88
2023-05-10T19:28:44.460Z,3.88
2023-05-10T19:31:14.372Z,4.15
2023-05-10T19:33:41.168Z,4.57
2023-05-10T19:36:07.940Z,4.25
2023-05-10T19:38:35.260Z,4.28
2023-05-10T19:41:01.950Z,4.65
2023-05-10T19:43:32.162Z,4.40
2023-05-10T19:46:02.985Z,4.10
2023-05-10T19:48:30.414Z,4.10
2023-05-10T19:51:07.024Z,4.10
2023-05-10T19:53:36.458Z,4.10
2023-05-10T19:56:06.249Z,5.22
2023-05-10T19:58:34.115Z,4.80
2023-05-10T20:01:01.175Z,4.32
2023-05-10T20:03:29.004Z,4.80
2023-05-10T20:05:55.923Z,4.90
2023-05-10T20:08:22.660Z,4.65
2023-05-10T20:10:49.527Z,5.20
2023-05-10T20:13:16.252Z,5.25
2023-05-10T20:15:42.998Z,4.90
2023-05-10T20:18:10.141Z,4.95
2023-05-10T20:20:36.918Z,4.45
2023-05-10T20:23:03.931Z,4.32
2023-05-10T20:25:30.736Z,4.78
2023-05-10T20:27:57.475Z,4.60
2023-05-10T20:30:24.287Z,4.55
2023-05-10T20:32:51.790Z,5.50
2023-05-10T20:35:18.609Z,5.03
2023-05-10T20:37:45.519Z,5.32
2023-05-10T20:40:12.679Z,5.75
2023-05-10T20:42:39.407Z,7.18
2023-05-10T20:45:07.147Z,5.90
2023-05-10T20:47:34.020Z,5.53
2023-05-10T20:50:00.768Z,5.40
2023-05-10T20:52:27.471Z,4.68
2023-05-10T20:54:54.228Z,4.40
2023-05-10T20:57:20.952Z,4.85
2023-05-10T20:59:49.685Z,4.60
2023-05-10T21:02:16.558Z,4.57
2023-05-10T21:04:43.364Z,4.30
2023-05-10T21:07:10.282Z,4.72
2023-05-10T21:09:36.981Z,4.10
2023-05-10T21:12:04.131Z,4.00
2023-05-10T21:14:31.047Z,3.78
2023-05-10T21:16:57.765Z,3.47
2023-05-10T21:19:24.528Z,3.47
2023-05-10T21:21:51.368Z,4.10
2023-05-10T21:24:18.426Z,3.40
2023-05-10T21:26:45.546Z,3.80
2023-05-10T21:29:12.265Z,3.80
2023-05-10T21:31:39.231Z,3.70
2023-05-10T21:34:06.568Z,3.95
2023-05-10T21:36:33.428Z,4.05
2023-05-10T21:39:00.394Z,4.35
2023-05-10T21:41:27.119Z,4.65
2023-05-10T21:43:53.824Z,4.40
2023-05-10T21:46:20.562Z,5.20
2023-05-10T21:48:47.384Z,5.35
2023-05-10T21:51:14.691Z,6.05
2023-05-10T21:53:41.508Z,6.38
2023-05-10T21:56:08.253Z,6.35
2023-05-10T21:58:35.022Z,6.75
2023-05-10T22:01:01.836Z,6.75
2023-05-10T22:03:28.690Z,7.32
2023-05-10T22:05:55.571Z,7.20
2023-05-10T22:08:22.332Z,7.05
2023-05-10T22:10:49.032Z,6.95
2023-05-10T22:13:15.752Z,7.40
2023-05-10T22:15:43.964Z,7.28
2023-05-10T22:18:11.077Z,6.85
2023-05-10T22:20:37.826Z,7.13
2023-05-10T22:23:04.684Z,6.60
2023-05-10T22:25:31.569Z,6.72
2023-05-10T22:28:00.355Z,6.75
2023-05-10T22:30:27.083Z,6.97
2023-05-10T22:32:54.213Z,6.20
2023-05-10T22:35:21.219Z,7.18
2023-05-10T22:37:47.910Z,7.30
2023-05-10T22:40:14.800Z,7.35
2023-05-10T22:42:41.648Z,7.10
2023-05-10T22:45:09.198Z,7.15
2023-05-10T22:47:36.050Z,7.28
2023-05-10T22:50:06.103Z,6.70
2023-05-10T22:52:32.842Z,7.10
2023-05-10T22:54:59.556Z,7.05
2023-05-10T22:57:26.680Z,7.85
2023-05-10T22:59:53.490Z,7.05
2023-05-10T23:02:20.292Z,7.43
2023-05-10T23:04:47.315Z,7.28
2023-05-10T23:07:14.093Z,7.40
2023-05-10T23:09:40.858Z,6.93
2023-05-10T23:12:07.671Z,7.35
2023-05-10T23:14:34.494Z,8.35
2023-05-10T23:17:01.312Z,7.63
2023-05-10T23:19:28.059Z,6.90
2023-05-10T23:21:54.967Z,7.55
2023-05-10T23:24:21.844Z,7.65
2023-05-10T23:26:48.564Z,7.50
2023-05-10T23:29:15.258Z,7.88
2023-05-10T23:31:45.695Z,8.50
2023-05-10T23:34:12.762Z,9.68
2023-05-10T23:36:39.527Z,9.85
2023-05-10T23:39:06.796Z,10.00
2023-05-10T23:41:33.986Z,10.70
2023-05-10T23:44:02.312Z,11.05
2023-05-10T23:46:29.106Z,12.07
2023-05-10T23:48:55.798Z,11.80
2023-05-10T23:51:22.560Z,12.00
2023-05-10T23:53:49.280Z,11.98
2023-05-10T23:56:15.974Z,12.65
2023-05-10T23:58:42.704Z,11.88
